sensor_id;sensor_type;location;lat;lon;timestamp;P1;durP1;ratioP1;P2;durP2;ratioP2
51270;SDS011;37744;50.960;4.136;2023-01-01T00:01:23;8.20;;;2.40;;
51270;SDS011;37744;50.960;4.136;2023-01-01T00:03:51;12.48;;;2.75;;
51270;SDS011;37744;50.960;4.136;2023-01-01T00:06:17;4.95;;;2.33;;
51270;SDS011;37744;50.960;4.136;2023-01-01T00:08:43;7.10;;;2.13;;
51270;SDS011;37744;50.960;4.136;2023-01-01T00:11:08;8.02;;;2.40;;
51270;SDS011;37744;50.960;4.136;2023-01-01T00:13:34;8.05;;;2.20;;
51270;SDS011;37744;50.960;4.136;2023-01-01T00:16:07;4.82;;;1.95;;
51270;SDS011;37744;50.960;4.136;2023-01-01T00:18:33;8.75;;;2.53;;
51270;SDS011;37744;50.960;4.136;2023-01-01T00:21:02;9.52;;;2.20;;
51270;SDS011;37744;50.960;4.136;2023-01-01T00:23:28;4.47;;;2.08;;
51270;SDS011;37744;50.960;4.136;2023-01-01T00:25:53;6.57;;;2.15;;
51270;SDS011;37744;50.960;4.136;2023-01-01T00:28:18;6.45;;;2.08;;
51270;SDS011;37744;50.960;4.136;2023-01-01T00:30:44;6.90;;;2.00;;
51270;SDS011;37744;50.960;4.136;2023-01-01T00:33:09;8.25;;;2.60;;
51270;SDS011;37744;50.960;4.136;2023-01-01T00:35:34;6.25;;;2.05;;
51270;SDS011;37744;50.960;4.136;2023-01-01T00:37:59;4.80;;;1.98;;
51270;SDS011;37744;50.960;4.136;2023-01-01T00:40:24;8.35;;;2.33;;
51270;SDS011;37744;50.960;4.136;2023-01-01T00:42:50;8.00;;;2.15;;
51270;SDS011;37744;50.960;4.136;2023-01-01T00:45:15;8.90;;;1.92;;
51270;SDS011;37744;50.960;4.136;2023-01-01T00:47:41;7.93;;;2.40;;
51270;SDS011;37744;50.960;4.136;2023-01-01T00:50:06;7.57;;;1.90;;
51270;SDS011;37744;50.960;4.136;2023-01-01T00:52:31;11.15;;;2.10;;
51270;SDS011;37744;50.960;4.136;2023-01-01T00:54:57;9.10;;;2.20;;
51270;SDS011;37744;50.960;4.136;2023-01-01T00:57:22;8.43;;;1.90;;
51270;SDS011;37744;50.960;4.136;2023-01-01T00:59:47;4.38;;;1.92;;
51270;SDS011;37744;50.960;4.136;2023-01-01T01:02:13;6.35;;;2.20;;
51270;SDS011;37744;50.960;4.136;2023-01-01T01:04:38;6.45;;;1.73;;
51270;SDS011;37744;50.960;4.136;2023-01-01T01:07:03;4.65;;;1.77;;
51270;SDS011;37744;50.960;4.136;2023-01-01T01:09:29;7.18;;;2.25;;
51270;SDS011;37744;50.960;4.136;2023-01-01T01:11:54;8.85;;;2.28;;
51270;SDS011;37744;50.960;4.136;2023-01-01T01:14:19;6.47;;;2.03;;
51270;SDS011;37744;50.960;4.136;2023-01-01T01:16:45;8.18;;;1.95;;
51270;SDS011;37744;50.960;4.136;2023-01-01T01:19:11;5.50;;;2.22;;
51270;SDS011;37744;50.960;4.136;2023-01-01T01:21:40;5.88;;;1.80;;
51270;SDS011;37744;50.960;4.136;2023-01-01T01:24:05;10.15;;;2.25;;
51270;SDS011;37744;50.960;4.136;2023-01-01T01:26:31;6.05;;;1.98;;
51270;SDS011;37744;50.960;4.136;2023-01-01T01:28:57;6.60;;;2.28;;
51270;SDS011;37744;50.960;4.136;2023-01-01T01:31:23;4.82;;;2.20;;
51270;SDS011;37744;50.960;4.136;2023-01-01T01:33:49;5.68;;;1.77;;
51270;SDS011;37744;50.960;4.136;2023-01-01T01:36:15;6.13;;;2.08;;
51270;SDS011;37744;50.960;4.136;2023-01-01T01:38:40;5.90;;;1.98;;
51270;SDS011;37744;50.960;4.136;2023-01-01T01:41:06;4.85;;;2.13;;
51270;SDS011;37744;50.960;4.136;2023-01-01T01:46:00;4.68;;;1.60;;
51270;SDS011;37744;50.960;4.136;2023-01-01T01:48:29;7.43;;;2.10;;
51270;SDS011;37744;50.960;4.136;2023-01-01T01:50:56;4.90;;;1.75;;
51270;SDS011;37744;50.960;4.136;2023-01-01T01:53:26;8.48;;;1.90;;
51270;SDS011;37744;50.960;4.136;2023-01-01T01:55:59;6.38;;;2.10;;
51270;SDS011;37744;50.960;4.136;2023-01-01T01:58:25;4.95;;;1.60;;
51270;SDS011;37744;50.960;4.136;2023-01-01T02:00:52;11.70;;;2.17;;
51270;SDS011;37744;50.960;4.136;2023-01-01T02:03:32;8.25;;;1.83;;
51270;SDS011;37744;50.960;4.136;2023-01-01T02:05:58;5.00;;;1.90;;
51270;SDS011;37744;50.960;4.136;2023-01-01T02:08:25;10.27;;;2.25;;
51270;SDS011;37744;50.960;4.136;2023-01-01T02:10:50;7.40;;;2.08;;
51270;SDS011;37744;50.960;4.136;2023-01-01T02:13:16;8.48;;;1.90;;
51270;SDS011;37744;50.960;4.136;2023-01-01T02:15:51;6.50;;;1.90;;
51270;SDS011;37744;50.960;4.136;2023-01-01T02:18:20;9.60;;;2.03;;
51270;SDS011;37744;50.960;4.136;2023-01-01T02:20:58;8.25;;;2.25;;
51270;SDS011;37744;50.960;4.136;2023-01-01T02:28:29;7.22;;;1.80;;
51270;SDS011;37744;50.960;4.136;2023-01-01T02:30:55;6.70;;;1.80;;
51270;SDS011;37744;50.960;4.136;2023-01-01T02:33:22;5.93;;;1.90;;
51270;SDS011;37744;50.960;4.136;2023-01-01T02:35:56;6.82;;;1.77;;
51270;SDS011;37744;50.960;4.136;2023-01-01T02:38:33;9.20;;;1.73;;
51270;SDS011;37744;50.960;4.136;2023-01-01T02:41:03;5.65;;;1.70;;
51270;SDS011;37744;50.960;4.136;2023-01-01T02:43:29;5.80;;;1.70;;
51270;SDS011;37744;50.960;4.136;2023-01-01T02:45:55;6.00;;;1.85;;
51270;SDS011;37744;50.960;4.136;2023-01-01T02:53:58;6.43;;;1.67;;
51270;SDS011;37744;50.960;4.136;2023-01-01T02:59:00;6.13;;;1.80;;
51270;SDS011;37744;50.960;4.136;2023-01-01T03:01:47;5.90;;;1.58;;
51270;SDS011;37744;50.960;4.136;2023-01-01T03:06:55;8.00;;;1.85;;
51270;SDS011;37744;50.960;4.136;2023-01-01T03:09:26;8.15;;;1.80;;
51270;SDS011;37744;50.960;4.136;2023-01-01T03:12:00;6.93;;;1.63;;
51270;SDS011;37744;50.960;4.136;2023-01-01T03:17:05;6.47;;;2.03;;
51270;SDS011;37744;50.960;4.136;2023-01-01T03:19:33;9.13;;;2.22;;
51270;SDS011;37744;50.960;4.136;2023-01-01T03:22:06;6.50;;;1.83;;
51270;SDS011;37744;50.960;4.136;2023-01-01T03:27:10;6.75;;;1.73;;
51270;SDS011;37744;50.960;4.136;2023-01-01T03:29:38;5.85;;;1.77;;
51270;SDS011;37744;50.960;4.136;2023-01-01T03:32:04;7.65;;;2.38;;
51270;SDS011;37744;50.960;4.136;2023-01-01T03:34:32;8.45;;;1.80;;
51270;SDS011;37744;50.960;4.136;2023-01-01T03:36:58;4.72;;;1.73;;
51270;SDS011;37744;50.960;4.136;2023-01-01T03:39:29;6.97;;;1.90;;
51270;SDS011;37744;50.960;4.136;2023-01-01T03:42:05;9.85;;;1.95;;
51270;SDS011;37744;50.960;4.136;2023-01-01T03:44:33;6.22;;;1.80;;
51270;SDS011;37744;50.960;4.136;2023-01-01T03:46:59;6.85;;;2.00;;
51270;SDS011;37744;50.960;4.136;2023-01-01T03:49:25;5.25;;;2.05;;
51270;SDS011;37744;50.960;4.136;2023-01-01T03:57:07;5.95;;;2.10;;
51270;SDS011;37744;50.960;4.136;2023-01-01T03:59:48;5.90;;;1.77;;
51270;SDS011;37744;50.960;4.136;2023-01-01T04:02:17;10.57;;;2.08;;
51270;SDS011;37744;50.960;4.136;2023-01-01T04:04:44;12.55;;;2.30;;
51270;SDS011;37744;50.960;4.136;2023-01-01T04:07:10;6.82;;;2.05;;
51270;SDS011;37744;50.960;4.136;2023-01-01T04:09:35;6.28;;;2.28;;
51270;SDS011;37744;50.960;4.136;2023-01-01T04:12:02;6.00;;;1.80;;
51270;SDS011;37744;50.960;4.136;2023-01-01T04:14:33;8.20;;;1.90;;
51270;SDS011;37744;50.960;4.136;2023-01-01T04:16:59;7.10;;;2.08;;
51270;SDS011;37744;50.960;4.136;2023-01-01T04:19:24;6.43;;;2.20;;
51270;SDS011;37744;50.960;4.136;2023-01-01T04:21:49;7.00;;;2.40;;
51270;SDS011;37744;50.960;4.136;2023-01-01T04:24:15;9.68;;;2.00;;
51270;SDS011;37744;50.960;4.136;2023-01-01T04:26:40;4.65;;;2.05;;
51270;SDS011;37744;50.960;4.136;2023-01-01T04:29:05;4.82;;;1.98;;
51270;SDS011;37744;50.960;4.136;2023-01-01T04:31:31;6.68;;;1.90;;
51270;SDS011;37744;50.960;4.136;2023-01-01T04:33:57;12.38;;;2.05;;
51270;SDS011;37744;50.960;4.136;2023-01-01T04:36:22;7.50;;;1.83;;
51270;SDS011;37744;50.960;4.136;2023-01-01T04:38:48;7.60;;;2.10;;
51270;SDS011;37744;50.960;4.136;2023-01-01T04:41:13;6.85;;;2.20;;
51270;SDS011;37744;50.960;4.136;2023-01-01T04:43:38;11.85;;;2.10;;
51270;SDS011;37744;50.960;4.136;2023-01-01T04:46:03;5.05;;;2.22;;
51270;SDS011;37744;50.960;4.136;2023-01-01T04:48:30;9.23;;;2.20;;
51270;SDS011;37744;50.960;4.136;2023-01-01T04:50:59;6.47;;;1.80;;
51270;SDS011;37744;50.960;4.136;2023-01-01T04:53:27;8.90;;;2.20;;
51270;SDS011;37744;50.960;4.136;2023-01-01T04:55:52;8.70;;;2.05;;
51270;SDS011;37744;50.960;4.136;2023-01-01T04:58:17;10.20;;;2.13;;
51270;SDS011;37744;50.960;4.136;2023-01-01T05:00:42;7.93;;;1.80;;
51270;SDS011;37744;50.960;4.136;2023-01-01T05:03:08;10.57;;;2.30;;
51270;SDS011;37744;50.960;4.136;2023-01-01T05:05:33;8.73;;;2.10;;
51270;SDS011;37744;50.960;4.136;2023-01-01T05:07:58;12.40;;;2.00;;
51270;SDS011;37744;50.960;4.136;2023-01-01T05:10:23;9.77;;;2.35;;
51270;SDS011;37744;50.960;4.136;2023-01-01T05:12:49;5.93;;;2.20;;
51270;SDS011;37744;50.960;4.136;2023-01-01T05:15:14;7.93;;;1.98;;
51270;SDS011;37744;50.960;4.136;2023-01-01T05:17:39;7.25;;;2.20;;
51270;SDS011;37744;50.960;4.136;2023-01-01T05:20:05;7.70;;;1.77;;
51270;SDS011;37744;50.960;4.136;2023-01-01T05:22:30;14.07;;;2.40;;
51270;SDS011;37744;50.960;4.136;2023-01-01T05:24:55;7.97;;;1.83;;
51270;SDS011;37744;50.960;4.136;2023-01-01T05:27:21;3.30;;;1.85;;
51270;SDS011;37744;50.960;4.136;2023-01-01T05:29:46;6.30;;;2.30;;
51270;SDS011;37744;50.960;4.136;2023-01-01T05:32:11;6.80;;;1.95;;
51270;SDS011;37744;50.960;4.136;2023-01-01T05:34:36;8.88;;;2.10;;
51270;SDS011;37744;50.960;4.136;2023-01-01T05:37:02;10.27;;;2.90;;
51270;SDS011;37744;50.960;4.136;2023-01-01T05:39:27;10.27;;;2.65;;
51270;SDS011;37744;50.960;4.136;2023-01-01T05:41:52;8.65;;;2.10;;
51270;SDS011;37744;50.960;4.136;2023-01-01T05:44:18;8.32;;;2.20;;
51270;SDS011;37744;50.960;4.136;2023-01-01T05:46:43;7.90;;;1.95;;
51270;SDS011;37744;50.960;4.136;2023-01-01T05:49:09;7.40;;;2.00;;
51270;SDS011;37744;50.960;4.136;2023-01-01T05:51:35;5.00;;;1.35;;
51270;SDS011;37744;50.960;4.136;2023-01-01T05:54:00;8.70;;;1.60;;
51270;SDS011;37744;50.960;4.136;2023-01-01T05:56:26;5.80;;;1.50;;
51270;SDS011;37744;50.960;4.136;2023-01-01T05:58:51;8.10;;;1.52;;
51270;SDS011;37744;50.960;4.136;2023-01-01T06:01:21;5.15;;;1.38;;
51270;SDS011;37744;50.960;4.136;2023-01-01T06:03:47;5.30;;;1.50;;
51270;SDS011;37744;50.960;4.136;2023-01-01T06:06:16;4.00;;;1.35;;
51270;SDS011;37744;50.960;4.136;2023-01-01T06:08:42;6.78;;;1.30;;
51270;SDS011;37744;50.960;4.136;2023-01-01T06:11:12;5.25;;;1.58;;
51270;SDS011;37744;50.960;4.136;2023-01-01T06:13:37;6.40;;;2.00;;
51270;SDS011;37744;50.960;4.136;2023-01-01T06:16:03;4.85;;;1.40;;
51270;SDS011;37744;50.960;4.136;2023-01-01T06:18:29;5.82;;;1.50;;
51270;SDS011;37744;50.960;4.136;2023-01-01T06:20:54;6.05;;;1.58;;
51270;SDS011;37744;50.960;4.136;2023-01-01T06:23:20;7.10;;;1.92;;
51270;SDS011;37744;50.960;4.136;2023-01-01T06:25:45;6.18;;;1.80;;
51270;SDS011;37744;50.960;4.136;2023-01-01T06:28:10;7.72;;;2.03;;
51270;SDS011;37744;50.960;4.136;2023-01-01T06:30:36;6.55;;;1.83;;
51270;SDS011;37744;50.960;4.136;2023-01-01T06:33:01;9.75;;;1.95;;
51270;SDS011;37744;50.960;4.136;2023-01-01T06:35:27;10.20;;;2.03;;
51270;SDS011;37744;50.960;4.136;2023-01-01T06:37:52;7.85;;;1.90;;
51270;SDS011;37744;50.960;4.136;2023-01-01T06:40:17;12.90;;;2.05;;
51270;SDS011;37744;50.960;4.136;2023-01-01T06:42:42;7.78;;;1.90;;
51270;SDS011;37744;50.960;4.136;2023-01-01T06:45:08;7.88;;;1.75;;
51270;SDS011;37744;50.960;4.136;2023-01-01T06:47:33;5.85;;;1.90;;
51270;SDS011;37744;50.960;4.136;2023-01-01T06:50:00;7.25;;;1.77;;
51270;SDS011;37744;50.960;4.136;2023-01-01T06:52:25;7.03;;;1.83;;
51270;SDS011;37744;50.960;4.136;2023-01-01T06:54:50;9.05;;;1.88;;
51270;SDS011;37744;50.960;4.136;2023-01-01T06:57:15;10.15;;;1.95;;
51270;SDS011;37744;50.960;4.136;2023-01-01T06:59:41;8.07;;;2.08;;
51270;SDS011;37744;50.960;4.136;2023-01-01T07:02:08;8.23;;;2.53;;
51270;SDS011;37744;50.960;4.136;2023-01-01T07:04:33;8.77;;;2.42;;
51270;SDS011;37744;50.960;4.136;2023-01-01T07:06:59;7.70;;;2.30;;
51270;SDS011;37744;50.960;4.136;2023-01-01T07:09:25;8.25;;;2.40;;
51270;SDS011;37744;50.960;4.136;2023-01-01T07:11:50;9.18;;;1.95;;
51270;SDS011;37744;50.960;4.136;2023-01-01T07:14:15;8.68;;;2.30;;
51270;SDS011;37744;50.960;4.136;2023-01-01T07:16:41;8.45;;;2.60;;
51270;SDS011;37744;50.960;4.136;2023-01-01T07:19:06;8.90;;;2.28;;
51270;SDS011;37744;50.960;4.136;2023-01-01T07:21:32;9.80;;;2.75;;
51270;SDS011;37744;50.960;4.136;2023-01-01T07:24:02;12.90;;;3.03;;
51270;SDS011;37744;50.960;4.136;2023-01-01T07:26:28;10.52;;;2.60;;
51270;SDS011;37744;50.960;4.136;2023-01-01T07:28:53;10.80;;;3.13;;
51270;SDS011;37744;50.960;4.136;2023-01-01T07:31:19;10.38;;;2.90;;
51270;SDS011;37744;50.960;4.136;2023-01-01T07:33:44;12.23;;;2.83;;
51270;SDS011;37744;50.960;4.136;2023-01-01T07:36:10;10.27;;;2.40;;
51270;SDS011;37744;50.960;4.136;2023-01-01T07:38:35;10.27;;;2.55;;
51270;SDS011;37744;50.960;4.136;2023-01-01T07:41:00;8.98;;;2.97;;
51270;SDS011;37744;50.960;4.136;2023-01-01T07:43:25;10.32;;;2.70;;
51270;SDS011;37744;50.960;4.136;2023-01-01T07:45:50;11.38;;;3.22;;
51270;SDS011;37744;50.960;4.136;2023-01-01T07:48:16;11.45;;;2.55;;
51270;SDS011;37744;50.960;4.136;2023-01-01T07:50:41;12.48;;;2.65;;
51270;SDS011;37744;50.960;4.136;2023-01-01T07:53:07;14.75;;;2.83;;
51270;SDS011;37744;50.960;4.136;2023-01-01T07:55:32;11.85;;;2.50;;
51270;SDS011;37744;50.960;4.136;2023-01-01T07:57:58;16.27;;;2.88;;
51270;SDS011;37744;50.960;4.136;2023-01-01T08:00:23;11.02;;;2.78;;
51270;SDS011;37744;50.960;4.136;2023-01-01T08:02:49;13.25;;;2.72;;
51270;SDS011;37744;50.960;4.136;2023-01-01T08:05:14;8.43;;;2.67;;
51270;SDS011;37744;50.960;4.136;2023-01-01T08:07:39;12.55;;;2.70;;
51270;SDS011;37744;50.960;4.136;2023-01-01T08:10:09;9.38;;;2.67;;
51270;SDS011;37744;50.960;4.136;2023-01-01T08:12:34;10.00;;;2.83;;
51270;SDS011;37744;50.960;4.136;2023-01-01T08:14:59;11.23;;;2.75;;
51270;SDS011;37744;50.960;4.136;2023-01-01T08:17:25;8.43;;;2.55;;
51270;SDS011;37744;50.960;4.136;2023-01-01T08:19:50;10.13;;;2.60;;
51270;SDS011;37744;50.960;4.136;2023-01-01T08:22:16;11.77;;;2.85;;
51270;SDS011;37744;50.960;4.136;2023-01-01T08:24:41;10.63;;;2.88;;
51270;SDS011;37744;50.960;4.136;2023-01-01T08:27:08;11.93;;;2.83;;
51270;SDS011;37744;50.960;4.136;2023-01-01T08:29:34;11.80;;;2.75;;
51270;SDS011;37744;50.960;4.136;2023-01-01T08:32:00;12.60;;;3.00;;
51270;SDS011;37744;50.960;4.136;2023-01-01T08:34:25;9.18;;;3.30;;
51270;SDS011;37744;50.960;4.136;2023-01-01T08:36:50;8.80;;;2.60;;
51270;SDS011;37744;50.960;4.136;2023-01-01T08:39:15;8.45;;;2.35;;
51270;SDS011;37744;50.960;4.136;2023-01-01T08:41:41;9.23;;;2.80;;
51270;SDS011;37744;50.960;4.136;2023-01-01T08:44:07;9.82;;;2.35;;
51270;SDS011;37744;50.960;4.136;2023-01-01T08:46:32;11.63;;;2.50;;
51270;SDS011;37744;50.960;4.136;2023-01-01T08:48:57;11.35;;;2.65;;
51270;SDS011;37744;50.960;4.136;2023-01-01T08:51:22;15.63;;;3.10;;
51270;SDS011;37744;50.960;4.136;2023-01-01T08:53:48;12.00;;;2.65;;
51270;SDS011;37744;50.960;4.136;2023-01-01T08:56:13;11.02;;;2.75;;
51270;SDS011;37744;50.960;4.136;2023-01-01T08:58:41;9.23;;;2.50;;
51270;SDS011;37744;50.960;4.136;2023-01-01T09:01:08;7.68;;;2.60;;
51270;SDS011;37744;50.960;4.136;2023-01-01T09:03:34;9.20;;;2.42;;
51270;SDS011;37744;50.960;4.136;2023-01-01T09:05:59;14.80;;;2.53;;
51270;SDS011;37744;50.960;4.136;2023-01-01T09:08:25;9.95;;;2.50;;
51270;SDS011;37744;50.960;4.136;2023-01-01T09:10:50;11.13;;;2.70;;
51270;SDS011;37744;50.960;4.136;2023-01-01T09:13:18;16.48;;;3.10;;
51270;SDS011;37744;50.960;4.136;2023-01-01T09:15:44;9.45;;;3.25;;
51270;SDS011;37744;50.960;4.136;2023-01-01T09:18:09;12.35;;;2.28;;
51270;SDS011;37744;50.960;4.136;2023-01-01T09:20:35;12.70;;;3.05;;
51270;SDS011;37744;50.960;4.136;2023-01-01T09:23:00;13.88;;;3.05;;
51270;SDS011;37744;50.960;4.136;2023-01-01T09:25:25;8.80;;;2.50;;
51270;SDS011;37744;50.960;4.136;2023-01-01T09:27:57;13.93;;;2.70;;
51270;SDS011;37744;50.960;4.136;2023-01-01T09:30:23;13.13;;;3.08;;
51270;SDS011;37744;50.960;4.136;2023-01-01T09:32:48;14.82;;;3.17;;
51270;SDS011;37744;50.960;4.136;2023-01-01T09:35:14;8.32;;;2.47;;
51270;SDS011;37744;50.960;4.136;2023-01-01T09:37:39;12.98;;;2.47;;
51270;SDS011;37744;50.960;4.136;2023-01-01T09:40:05;10.13;;;3.60;;
51270;SDS011;37744;50.960;4.136;2023-01-01T09:42:44;14.43;;;2.83;;
51270;SDS011;37744;50.960;4.136;2023-01-01T09:47:41;10.65;;;2.42;;
51270;SDS011;37744;50.960;4.136;2023-01-01T09:50:30;13.18;;;2.95;;
51270;SDS011;37744;50.960;4.136;2023-01-01T09:52:54;13.73;;;2.90;;
51270;SDS011;37744;50.960;4.136;2023-01-01T09:55:25;9.75;;;2.60;;
51270;SDS011;37744;50.960;4.136;2023-01-01T09:57:51;12.30;;;2.45;;
51270;SDS011;37744;50.960;4.136;2023-01-01T10:00:17;8.68;;;2.05;;
51270;SDS011;37744;50.960;4.136;2023-01-01T10:18:20;9.98;;;2.58;;
51270;SDS011;37744;50.960;4.136;2023-01-01T10:20:51;13.15;;;2.60;;
51270;SDS011;37744;50.960;4.136;2023-01-01T10:23:30;13.13;;;2.60;;
51270;SDS011;37744;50.960;4.136;2023-01-01T10:25:57;14.38;;;2.65;;
51270;SDS011;37744;50.960;4.136;2023-01-01T10:30:53;8.27;;;2.30;;
51270;SDS011;37744;50.960;4.136;2023-01-01T10:33:24;10.93;;;2.42;;
51270;SDS011;37744;50.960;4.136;2023-01-01T10:35:50;8.52;;;2.20;;
51270;SDS011;37744;50.960;4.136;2023-01-01T10:40:46;8.57;;;2.42;;
51270;SDS011;37744;50.960;4.136;2023-01-01T10:43:11;16.02;;;2.50;;
51270;SDS011;37744;50.960;4.136;2023-01-01T10:45:47;7.68;;;2.30;;
51270;SDS011;37744;50.960;4.136;2023-01-01T10:48:15;11.05;;;2.35;;
51270;SDS011;37744;50.960;4.136;2023-01-01T10:50:42;13.30;;;2.50;;
51270;SDS011;37744;50.960;4.136;2023-01-01T10:55:59;13.52;;;3.10;;
51270;SDS011;37744;50.960;4.136;2023-01-01T11:00:57;13.60;;;2.22;;
51270;SDS011;37744;50.960;4.136;2023-01-01T11:03:22;12.10;;;2.83;;
51270;SDS011;37744;50.960;4.136;2023-01-01T11:06:30;10.73;;;2.60;;
51270;SDS011;37744;50.960;4.136;2023-01-01T11:08:36;10.68;;;2.38;;
51270;SDS011;37744;50.960;4.136;2023-01-01T11:11:03;12.85;;;2.67;;
51270;SDS011;37744;50.960;4.136;2023-01-01T11:13:28;9.02;;;2.25;;
51270;SDS011;37744;50.960;4.136;2023-01-01T11:15:55;7.70;;;2.33;;
51270;SDS011;37744;50.960;4.136;2023-01-01T11:18:21;8.63;;;2.60;;
51270;SDS011;37744;50.960;4.136;2023-01-01T11:20:51;18.08;;;2.95;;
51270;SDS011;37744;50.960;4.136;2023-01-01T11:28:39;9.50;;;2.70;;
51270;SDS011;37744;50.960;4.136;2023-01-01T11:31:14;20.17;;;3.20;;
51270;SDS011;37744;50.960;4.136;2023-01-01T11:33:47;10.82;;;2.97;;
51270;SDS011;37744;50.960;4.136;2023-01-01T11:36:19;11.45;;;3.00;;
51270;SDS011;37744;50.960;4.136;2023-01-01T11:38:45;7.78;;;2.20;;
51270;SDS011;37744;50.960;4.136;2023-01-01T11:41:12;12.60;;;2.47;;
51270;SDS011;37744;50.960;4.136;2023-01-01T11:43:39;14.13;;;2.30;;
51270;SDS011;37744;50.960;4.136;2023-01-01T11:46:05;10.38;;;2.45;;
51270;SDS011;37744;50.960;4.136;2023-01-01T11:48:32;8.38;;;2.17;;
51270;SDS011;37744;50.960;4.136;2023-01-01T11:50:59;11.88;;;2.30;;
51270;SDS011;37744;50.960;4.136;2023-01-01T11:53:30;11.73;;;2.92;;
51270;SDS011;37744;50.960;4.136;2023-01-01T12:00:50;12.88;;;2.60;;
51270;SDS011;37744;50.960;4.136;2023-01-01T12:03:26;14.48;;;2.60;;
51270;SDS011;37744;50.960;4.136;2023-01-01T12:11:33;11.35;;;2.63;;
51270;SDS011;37744;50.960;4.136;2023-01-01T12:14:12;13.45;;;2.58;;
51270;SDS011;37744;50.960;4.136;2023-01-01T12:17:40;9.68;;;2.22;;
51270;SDS011;37744;50.960;4.136;2023-01-01T12:19:40;14.38;;;2.60;;
51270;SDS011;37744;50.960;4.136;2023-01-01T12:22:09;11.20;;;2.60;;
51270;SDS011;37744;50.960;4.136;2023-01-01T12:24:35;16.83;;;2.70;;
51270;SDS011;37744;50.960;4.136;2023-01-01T12:32:18;11.98;;;2.78;;
51270;SDS011;37744;50.960;4.136;2023-01-01T12:34:55;11.02;;;2.83;;
51270;SDS011;37744;50.960;4.136;2023-01-01T12:42:29;11.20;;;3.25;;
51270;SDS011;37744;50.960;4.136;2023-01-01T12:47:56;13.27;;;2.58;;
51270;SDS011;37744;50.960;4.136;2023-01-01T12:58:31;17.73;;;4.63;;
51270;SDS011;37744;50.960;4.136;2023-01-01T13:01:03;12.45;;;2.95;;
51270;SDS011;37744;50.960;4.136;2023-01-01T13:03:31;11.00;;;3.40;;
51270;SDS011;37744;50.960;4.136;2023-01-01T13:05:57;13.38;;;2.80;;
51270;SDS011;37744;50.960;4.136;2023-01-01T13:08:23;16.02;;;2.97;;
51270;SDS011;37744;50.960;4.136;2023-01-01T13:10:49;10.90;;;2.45;;
51270;SDS011;37744;50.960;4.136;2023-01-01T13:13:15;10.95;;;2.45;;
51270;SDS011;37744;50.960;4.136;2023-01-01T13:15:43;12.05;;;2.88;;
51270;SDS011;37744;50.960;4.136;2023-01-01T13:20:40;10.93;;;3.30;;
51270;SDS011;37744;50.960;4.136;2023-01-01T13:26:05;9.05;;;2.70;;
51270;SDS011;37744;50.960;4.136;2023-01-01T13:28:35;11.40;;;2.95;;
51270;SDS011;37744;50.960;4.136;2023-01-01T13:31:00;14.15;;;3.17;;
51270;SDS011;37744;50.960;4.136;2023-01-01T13:33:28;14.88;;;2.65;;
51270;SDS011;37744;50.960;4.136;2023-01-01T13:38:51;11.15;;;3.10;;
51270;SDS011;37744;50.960;4.136;2023-01-01T13:43:45;12.48;;;2.97;;
51270;SDS011;37744;50.960;4.136;2023-01-01T13:46:10;16.08;;;2.90;;
51270;SDS011;37744;50.960;4.136;2023-01-01T14:03:48;15.85;;;3.92;;
51270;SDS011;37744;50.960;4.136;2023-01-01T14:06:23;9.48;;;2.97;;
51270;SDS011;37744;50.960;4.136;2023-01-01T14:08:59;13.27;;;3.00;;
51270;SDS011;37744;50.960;4.136;2023-01-01T14:11:25;14.32;;;3.40;;
51270;SDS011;37744;50.960;4.136;2023-01-01T14:13:51;12.05;;;3.50;;
51270;SDS011;37744;50.960;4.136;2023-01-01T14:16:16;8.90;;;2.97;;
51270;SDS011;37744;50.960;4.136;2023-01-01T14:21:12;11.10;;;3.13;;
51270;SDS011;37744;50.960;4.136;2023-01-01T14:23:42;13.52;;;3.38;;
51270;SDS011;37744;50.960;4.136;2023-01-01T14:26:11;13.60;;;2.80;;
51270;SDS011;37744;50.960;4.136;2023-01-01T14:28:37;13.68;;;3.30;;
51270;SDS011;37744;50.960;4.136;2023-01-01T14:31:04;14.23;;;3.00;;
51270;SDS011;37744;50.960;4.136;2023-01-01T14:33:35;10.15;;;3.20;;
51270;SDS011;37744;50.960;4.136;2023-01-01T14:36:01;11.05;;;3.20;;
51270;SDS011;37744;50.960;4.136;2023-01-01T14:38:28;11.55;;;2.85;;
51270;SDS011;37744;50.960;4.136;2023-01-01T14:40:58;11.65;;;2.90;;
51270;SDS011;37744;50.960;4.136;2023-01-01T14:43:24;10.60;;;3.05;;
51270;SDS011;37744;50.960;4.136;2023-01-01T14:45:49;10.45;;;3.25;;
51270;SDS011;37744;50.960;4.136;2023-01-01T14:48:17;15.70;;;2.95;;
51270;SDS011;37744;50.960;4.136;2023-01-01T14:50:44;14.50;;;2.92;;
51270;SDS011;37744;50.960;4.136;2023-01-01T14:53:12;10.30;;;3.47;;
51270;SDS011;37744;50.960;4.136;2023-01-01T14:55:41;14.45;;;3.33;;
51270;SDS011;37744;50.960;4.136;2023-01-01T14:58:10;13.10;;;3.30;;
51270;SDS011;37744;50.960;4.136;2023-01-01T15:00:36;14.70;;;3.33;;
51270;SDS011;37744;50.960;4.136;2023-01-01T15:03:06;12.57;;;3.20;;
51270;SDS011;37744;50.960;4.136;2023-01-01T15:05:33;13.40;;;3.47;;
51270;SDS011;37744;50.960;4.136;2023-01-01T15:07:59;10.80;;;3.03;;
51270;SDS011;37744;50.960;4.136;2023-01-01T15:10:25;14.18;;;3.72;;
51270;SDS011;37744;50.960;4.136;2023-01-01T15:12:50;13.82;;;3.28;;
51270;SDS011;37744;50.960;4.136;2023-01-01T15:18:44;7.22;;;2.75;;
51270;SDS011;37744;50.960;4.136;2023-01-01T15:21:03;14.73;;;3.35;;
51270;SDS011;37744;50.960;4.136;2023-01-01T15:23:29;14.52;;;3.47;;
51270;SDS011;37744;50.960;4.136;2023-01-01T15:25:55;12.57;;;3.30;;
51270;SDS011;37744;50.960;4.136;2023-01-01T15:28:20;6.60;;;2.25;;
51270;SDS011;37744;50.960;4.136;2023-01-01T15:30:53;11.02;;;2.95;;
51270;SDS011;37744;50.960;4.136;2023-01-01T15:33:19;9.88;;;2.92;;
51270;SDS011;37744;50.960;4.136;2023-01-01T15:35:45;9.85;;;2.97;;
51270;SDS011;37744;50.960;4.136;2023-01-01T15:38:32;11.23;;;3.22;;
51270;SDS011;37744;50.960;4.136;2023-01-01T15:40:58;10.98;;;2.88;;
51270;SDS011;37744;50.960;4.136;2023-01-01T15:43:24;9.57;;;2.97;;
51270;SDS011;37744;50.960;4.136;2023-01-01T15:45:53;9.77;;;3.53;;
51270;SDS011;37744;50.960;4.136;2023-01-01T15:51:15;9.23;;;3.45;;
51270;SDS011;37744;50.960;4.136;2023-01-01T15:53:48;8.70;;;3.30;;
51270;SDS011;37744;50.960;4.136;2023-01-01T15:56:15;8.95;;;2.85;;
51270;SDS011;37744;50.960;4.136;2023-01-01T16:01:09;11.60;;;3.05;;
51270;SDS011;37744;50.960;4.136;2023-01-01T16:03:35;9.50;;;3.00;;
51270;SDS011;37744;50.960;4.136;2023-01-01T16:06:01;14.18;;;3.13;;
51270;SDS011;37744;50.960;4.136;2023-01-01T16:08:27;9.45;;;3.00;;
51270;SDS011;37744;50.960;4.136;2023-01-01T16:10:52;13.88;;;3.20;;
51270;SDS011;37744;50.960;4.136;2023-01-01T16:13:19;13.75;;;3.20;;
51270;SDS011;37744;50.960;4.136;2023-01-01T16:15:57;12.68;;;3.03;;
51270;SDS011;37744;50.960;4.136;2023-01-01T16:18:26;10.40;;;3.00;;
51270;SDS011;37744;50.960;4.136;2023-01-01T16:20:51;9.10;;;3.20;;
51270;SDS011;37744;50.960;4.136;2023-01-01T16:23:17;9.88;;;3.00;;
51270;SDS011;37744;50.960;4.136;2023-01-01T16:25:42;10.70;;;3.40;;
51270;SDS011;37744;50.960;4.136;2023-01-01T16:28:07;8.95;;;3.50;;
51270;SDS011;37744;50.960;4.136;2023-01-01T16:30:33;9.88;;;3.45;;
51270;SDS011;37744;50.960;4.136;2023-01-01T16:32:58;7.97;;;3.25;;
51270;SDS011;37744;50.960;4.136;2023-01-01T16:35:23;9.32;;;4.38;;
51270;SDS011;37744;50.960;4.136;2023-01-01T16:37:49;9.95;;;3.22;;
51270;SDS011;37744;50.960;4.136;2023-01-01T16:40:14;6.75;;;2.92;;
51270;SDS011;37744;50.960;4.136;2023-01-01T16:42:39;10.25;;;3.45;;
51270;SDS011;37744;50.960;4.136;2023-01-01T16:45:05;11.77;;;3.55;;
51270;SDS011;37744;50.960;4.136;2023-01-01T16:47:30;14.20;;;4.22;;
51270;SDS011;37744;50.960;4.136;2023-01-01T16:49:56;14.43;;;4.00;;
51270;SDS011;37744;50.960;4.136;2023-01-01T16:52:21;12.25;;;4.15;;
51270;SDS011;37744;50.960;4.136;2023-01-01T16:54:46;8.48;;;4.10;;